Time;durP1;ratioP1;P1;durP2;ratioP2;P2;SDS_P1;SDS_P2;PMS_P1;PMS_P2;Temp;Humidity;BMP_temperature;BMP_pressure;BME280_temperature;BME280_humidity;BME280_pressure;Samples;Min_cycle;Max_cycle;Signal;HPM_P1;HPM_P2
2022/07/02 00:02:58;;;;;;;1.30;0.47;;;;;;;14.21;79.37;98272.09;6229544;28;20329;-45
2022/07/02 00:06:03;;;;;;;0.60;0.50;;;;;;;14.18;78.11;98259.91;6229603;28;20809;-45
2022/07/02 00:09:06;;;;;;;1.23;0.40;;;;;;;14.21;78.58;98266.78;6232324;28;20223;-44
2022/07/02 00:12:10;;;;;;;3.17;0.70;;;;;;;14.19;79.02;98289.97;6231074;28;21017;-44
2022/07/02 00:15:14;;;;;;;1.73;0.60;;;;;;;14.18;78.69;98280.31;6229514;28;20297;-45
2022/07/02 00:18:17;;;;;;;0.83;0.50;;;;;;;14.20;78.60;98287.19;6229800;28;20212;-44
2022/07/02 00:21:20;;;;;;;0.70;0.70;;;;;;;14.24;78.57;98271.84;6230087;28;20605;-45
2022/07/02 00:24:22;;;;;;;0.40;0.40;;;;;;;14.21;77.75;98283.56;6229279;28;20728;-45
2022/07/02 00:27:28;;;;;;;0.63;0.40;;;;;;;14.25;78.14;98273.53;6228536;28;20235;-45
2022/07/02 00:30:30;;;;;;;0.47;0.23;;;;;;;14.23;78.13;98288.75;6229494;28;20301;-44
2022/07/02 00:33:35;;;;;;;1.07;0.60;;;;;;;14.20;77.63;98284.53;6229006;28;20228;-45
2022/07/02 00:36:39;;;;;;;0.63;0.60;;;;;;;14.19;78.28;98287.31;6228876;28;20223;-44
2022/07/02 00:39:41;;;;;;;0.30;0.30;;;;;;;14.17;77.70;98276.00;6228725;28;20227;-45
2022/07/02 00:42:44;;;;;;;0.30;0.30;;;;;;;14.14;78.06;98285.06;6229278;28;20320;-46
2022/07/02 00:45:47;;;;;;;0.97;0.50;;;;;;;14.11;77.20;98282.66;6229005;28;20235;-45
2022/07/02 00:48:49;;;;;;;0.70;0.70;;;;;;;14.10;77.62;98290.75;6228792;28;20378;-45
2022/07/02 00:51:51;;;;;;;0.67;0.67;;;;;;;14.08;76.93;98280.25;6229206;28;20238;-45
2022/07/02 00:54:53;;;;;;;0.60;0.60;;;;;;;14.06;76.83;98279.56;6227849;28;20255;-45
2022/07/02 00:57:56;;;;;;;0.77;0.43;;;;;;;14.01;76.92;98287.91;6228897;28;20704;-46
2022/07/02 01:01:54;;;;;;;1.03;0.50;;;;;;;14.02;77.39;98283.44;6228978;28;20242;-44
2022/07/02 01:04:58;;;;;;;1.43;0.50;;;;;;;13.98;77.08;98274.88;6226481;28;20598;-45
2022/07/02 01:11:25;;;;;;;0.40;0.40;;;;;;;13.92;77.19;98277.22;6228922;28;20228;-45
2022/07/02 01:14:28;;;;;;;1.90;0.60;;;;;;;13.96;76.71;98270.69;6228768;28;20626;-46
2022/07/02 01:17:31;;;;;;;0.40;0.40;;;;;;;13.97;77.02;98277.69;6228546;28;20223;-45
2022/07/02 01:20:33;;;;;;;0.60;0.50;;;;;;;13.95;77.19;98272.50;6228896;28;20322;-46
2022/07/02 01:23:35;;;;;;;1.70;0.53;;;;;;;13.93;77.11;98279.75;6228700;28;20232;-45
2022/07/02 01:26:38;;;;;;;1.00;0.40;;;;;;;13.91;77.36;98272.88;6227878;28;20238;-45
2022/07/02 01:29:40;;;;;;;0.80;0.40;;;;;;;13.95;77.06;98285.78;6228248;28;20307;-44
2022/07/02 01:32:43;;;;;;;0.60;0.60;;;;;;;13.95;76.62;98282.28;6229588;28;20242;-44
2022/07/02 01:35:45;;;;;;;0.50;0.50;;;;;;;13.95;76.49;98282.28;6227912;28;20809;-44
2022/07/02 01:38:48;;;;;;;0.50;0.50;;;;;;;13.98;77.16;98282.00;6210624;28;20227;-43
2022/07/02 01:41:51;;;;;;;0.50;0.50;;;;;;;13.98;77.03;98271.38;6228563;28;20309;-46
2022/07/02 01:44:53;;;;;;;0.50;0.50;;;;;;;13.98;77.48;98282.00;6229340;28;20232;-46
2022/07/02 01:47:55;;;;;;;0.70;0.70;;;;;;;13.94;77.17;98278.78;6227832;28;20227;-43
2022/07/02 01:50:58;;;;;;;0.73;0.73;;;;;;;13.95;77.81;98272.50;6228275;28;20650;-44
2022/07/02 01:54:00;;;;;;;0.90;0.90;;;;;;;13.96;77.40;98276.00;6232066;28;20235;-44
2022/07/02 01:57:03;;;;;;;0.70;0.70;;;;;;;13.92;77.44;98279.88;6231990;28;20318;-43
2022/07/02 02:00:08;;;;;;;1.30;0.70;;;;;;;13.89;77.24;98270.34;6233743;28;20216;-43
2022/07/02 02:03:11;;;;;;;0.80;0.80;;;;;;;13.86;77.62;98265.34;6231572;28;20253;-45
2022/07/02 02:06:13;;;;;;;1.73;0.70;;;;;;;13.85;77.94;98270.75;6232775;28;20266;-43
2022/07/02 02:09:15;;;;;;;0.80;0.80;;;;;;;13.82;78.24;98284.28;6232122;28;20204;-43
2022/07/02 02:12:17;;;;;;;1.00;0.80;;;;;;;13.82;77.66;98292.22;6232685;28;20765;-44
2022/07/02 02:15:20;;;;;;;0.93;0.93;;;;;;;13.82;77.89;98282.47;6232013;28;20695;-43
2022/07/02 02:18:22;;;;;;;0.70;0.70;;;;;;;13.83;78.25;98289.47;6232823;28;20584;-45
2022/07/02 02:21:26;;;;;;;0.70;0.70;;;;;;;13.84;77.97;98296.44;6232164;28;20235;-45
2022/07/02 02:24:28;;;;;;;0.97;0.67;;;;;;;13.84;77.65;98295.59;6231395;28;20235;-44
2022/07/02 02:27:31;;;;;;;2.17;1.00;;;;;;;13.82;77.43;98316.13;6231279;28;20556;-45
2022/07/02 02:30:33;;;;;;;0.80;0.80;;;;;;;13.82;77.18;98308.16;6232298;28;20770;-45
2022/07/02 02:33:35;;;;;;;0.97;0.87;;;;;;;13.81;77.83;98322.38;6231805;28;20700;-47
2022/07/02 02:36:38;;;;;;;1.00;0.83;;;;;;;13.77;77.64;98310.38;6230900;28;20306;-44
2022/07/02 02:39:41;;;;;;;1.30;0.87;;;;;;;13.78;77.40;98310.22;6231896;28;20232;-43
2022/07/02 02:42:43;;;;;;;0.80;0.70;;;;;;;13.78;77.58;98312.88;6231771;28;20653;-44
2022/07/02 02:45:45;;;;;;;0.70;0.70;;;;;;;13.77;77.66;98318.31;6230855;28;20223;-44
2022/07/02 02:48:48;;;;;;;1.50;0.87;;;;;;;13.73;77.37;98316.88;6231320;28;20259;-45
2022/07/02 02:51:50;;;;;;;0.80;0.80;;;;;;;13.68;77.42;98326.03;6231180;28;20251;-46
2022/07/02 02:54:52;;;;;;;2.43;1.00;;;;;;;13.70;77.56;98330.38;6231486;28;20234;-44
2022/07/02 02:57:55;;;;;;;1.90;0.90;;;;;;;13.68;77.17;98333.16;6230746;28;20232;-43
2022/07/02 03:00:57;;;;;;;1.33;1.00;;;;;;;13.71;77.37;98322.31;6231749;28;20242;-44
2022/07/02 03:03:59;;;;;;;2.30;1.13;;;;;;;13.69;77.24;98334.84;6230128;28;20239;-44
2022/07/02 03:07:02;;;;;;;1.50;1.23;;;;;;;13.69;77.64;98340.16;6230725;28;20278;-43
2022/07/02 03:10:05;;;;;;;0.90;0.90;;;;;;;13.68;78.04;98334.00;6230946;28;20238;-45
2022/07/02 03:13:07;;;;;;;1.10;1.07;;;;;;;13.66;77.77;98330.66;6231140;28;20259;-43
2022/07/02 03:16:09;;;;;;;1.73;1.40;;;;;;;13.68;77.80;98333.16;6230485;28;20240;-44
2022/07/02 03:19:12;;;;;;;1.40;1.30;;;;;;;13.66;77.28;98340.44;6212788;28;20573;-45
2022/07/02 03:22:14;;;;;;;3.63;1.40;;;;;;;13.66;76.97;98335.13;6231303;28;20381;-44
2022/07/02 03:25:16;;;;;;;1.30;1.20;;;;;;;13.66;77.27;98338.63;6230692;28;20819;-44
2022/07/02 03:28:19;;;;;;;1.60;1.50;;;;;;;13.66;77.04;98345.72;6229993;28;20281;-44
2022/07/02 03:31:21;;;;;;;1.70;1.60;;;;;;;13.69;76.60;98332.19;6231994;28;20263;-43
2022/07/02 03:34:23;;;;;;;1.70;1.40;;;;;;;13.66;77.60;98338.63;6230497;28;20544;-44
2022/07/02 03:37:28;;;;;;;2.70;1.80;;;;;;;13.62;76.76;98342.47;6228882;28;20705;-45
2022/07/02 03:40:31;;;;;;;1.93;1.40;;;;;;;13.64;76.57;98347.66;6229485;28;20314;-46
2022/07/02 03:43:33;;;;;;;2.83;1.63;;;;;;;13.63;76.37;98352.13;6229275;28;20236;-46
2022/07/02 03:46:35;;;;;;;1.30;1.20;;;;;;;13.67;76.20;98356.19;6230575;28;20313;-45
2022/07/02 03:49:38;;;;;;;1.43;1.33;;;;;;;13.71;75.53;98348.00;6229518;28;20232;-45
2022/07/02 03:52:40;;;;;;;1.50;1.40;;;;;;;13.72;75.54;98355.81;6230065;28;20739;-44
2022/07/02 03:55:42;;;;;;;1.80;1.57;;;;;;;13.72;76.18;98358.47;6229529;28;20239;-45
2022/07/02 03:58:44;;;;;;;1.50;1.40;;;;;;;13.71;75.85;98367.41;6228993;28;20729;-45
2022/07/02 04:01:47;;;;;;;3.50;1.50;;;;;;;13.70;75.74;98376.31;6229882;28;20275;-44
2022/07/02 04:04:49;;;;;;;1.80;1.70;;;;;;;13.71;75.45;98369.22;6228677;28;20231;-44
2022/07/02 04:07:51;;;;;;;1.70;1.50;;;;;;;13.73;75.25;98386.69;6228811;28;20239;-43
2022/07/02 04:10:54;;;;;;;1.80;1.70;;;;;;;13.76;75.37;98394.41;6229301;28;20228;-46
2022/07/02 04:13:56;;;;;;;1.50;1.40;;;;;;;13.77;75.23;98382.00;6229557;28;20231;-43
2022/07/02 04:16:58;;;;;;;1.63;1.53;;;;;;;13.80;74.84;98377.25;6228290;28;20300;-44
2022/07/02 04:20:01;;;;;;;2.23;1.17;;;;;;;13.82;74.48;98398.38;6228790;28;20239;-44
2022/07/02 04:23:03;;;;;;;1.77;1.60;;;;;;;13.85;73.61;98391.00;6228849;28;20250;-44
2022/07/02 04:26:06;;;;;;;1.70;1.50;;;;;;;13.85;74.35;98408.72;6229315;28;20711;-44
2022/07/02 04:29:08;;;;;;;3.70;1.50;;;;;;;13.85;73.87;98400.78;6228506;28;20385;-43
2022/07/02 04:32:10;;;;;;;2.80;1.30;;;;;;;13.87;73.88;98415.59;6228897;28;20290;-44
2022/07/02 04:35:12;;;;;;;1.43;1.33;;;;;;;13.87;74.05;98412.09;6228113;28;20235;-44
2022/07/02 04:38:15;;;;;;;2.17;1.30;;;;;;;13.88;74.12;98403.16;6227522;28;20295;-44
2022/07/02 04:41:17;;;;;;;1.50;1.30;;;;;;;13.91;74.23;98397.59;6228439;28;20239;-44
2022/07/02 04:44:19;;;;;;;1.50;1.40;;;;;;;13.95;74.37;98407.84;6228380;28;20219;-44
2022/07/02 04:47:22;;;;;;;1.50;1.40;;;;;;;13.97;74.66;98405.06;6227905;28;20265;-45
2022/07/02 04:50:24;;;;;;;2.37;1.20;;;;;;;14.01;74.17;98417.94;6228852;28;20313;-45
2022/07/02 04:53:27;;;;;;;2.30;1.10;;;;;;;14.06;74.22;98419.41;6202941;28;20314;-46
2022/07/02 04:56:29;;;;;;;1.00;1.00;;;;;;;14.07;74.54;98418.44;6219660;28;20242;-44
2022/07/02 04:59:32;;;;;;;1.27;1.10;;;;;;;14.11;74.81;98428.66;6228724;28;20658;-44
2022/07/02 05:02:39;;;;;;;1.43;1.33;;;;;;;14.11;74.01;98431.31;6228471;28;20247;-46
2022/07/02 05:05:41;;;;;;;1.47;1.20;;;;;;;14.11;74.50;98428.66;6229749;28;20199;-43
2022/07/02 05:08:44;;;;;;;1.53;1.17;;;;;;;14.11;73.75;98439.28;6227589;28;20281;-44
2022/07/02 05:11:46;;;;;;;1.47;1.10;;;;;;;14.20;72.97;98451.78;6229083;28;20293;-44
2022/07/02 05:14:48;;;;;;;1.30;1.20;;;;;;;14.30;72.81;98443.88;6229153;28;20315;-43
2022/07/02 05:17:50;;;;;;;2.00;0.90;;;;;;;14.37;72.13;98453.88;6232949;28;20254;-43
2022/07/02 05:20:53;;;;;;;1.20;1.10;;;;;;;14.44;71.75;98458.72;6230304;28;20260;-43
2022/07/02 05:23:55;;;;;;;0.90;0.90;;;;;;;14.43;72.16;98457.88;6229238;28;20394;-45
2022/07/02 05:26:57;;;;;;;0.97;0.97;;;;;;;14.49;71.68;98461.81;6228128;28;20227;-45
2022/07/02 05:29:59;;;;;;;0.80;0.80;;;;;;;14.54;72.10;98470.25;6233181;28;20238;-44
2022/07/02 05:33:02;;;;;;;1.60;1.13;;;;;;;14.58;71.77;98459.22;6230553;28;20312;-43
2022/07/02 05:36:04;;;;;;;0.90;0.90;;;;;;;14.62;71.60;98470.44;6232118;28;20638;-45
2022/07/02 05:39:06;;;;;;;1.73;0.90;;;;;;;14.66;71.25;98467.41;6232880;28;20211;-46
2022/07/02 05:42:09;;;;;;;1.83;1.10;;;;;;;14.67;71.43;98478.91;6233502;28;20311;-43
2022/07/02 05:45:11;;;;;;;1.10;1.00;;;;;;;14.73;70.97;98479.22;6232189;28;20216;-44
2022/07/02 05:48:13;;;;;;;1.30;1.10;;;;;;;14.83;71.13;98478.44;6232304;28;20777;-45
2022/07/02 05:51:16;;;;;;;1.53;0.87;;;;;;;14.91;70.90;98476.81;6232911;28;20687;-44
2022/07/02 05:54:18;;;;;;;3.33;0.90;;;;;;;14.94;70.89;98473.88;6232453;28;20581;-44
2022/07/02 05:57:20;;;;;;;0.97;0.90;;;;;;;14.94;70.67;98489.00;6233352;28;20283;-44
2022/07/02 06:00:23;;;;;;;1.47;1.00;;;;;;;15.00;69.97;98483.16;6233200;28;20232;-44
2022/07/02 06:03:25;;;;;;;1.27;1.17;;;;;;;15.02;69.46;98486.50;6232127;28;20292;-47
2022/07/02 06:09:48;;;;;;;1.20;1.10;;;;;;;15.10;68.88;98495.53;6232321;28;20680;-45
2022/07/02 06:12:52;;;;;;;1.80;0.93;;;;;;;15.20;68.18;98495.56;6233142;28;20715;-44
2022/07/02 06:15:54;;;;;;;3.17;1.20;;;;;;;15.29;68.21;98489.44;6232284;28;20297;-44
2022/07/02 06:18:56;;;;;;;1.20;1.03;;;;;;;15.34;68.13;98489.91;6231810;28;20228;-44
2022/07/02 06:21:59;;;;;;;1.07;0.97;;;;;;;15.46;67.97;98496.84;6231911;28;20239;-44
2022/07/02 06:25:01;;;;;;;3.27;1.00;;;;;;;15.56;67.12;98496.06;6232106;28;20227;-45
2022/07/02 06:28:03;;;;;;;1.20;1.10;;;;;;;15.68;66.38;98497.63;6231359;28;20231;-45
2022/07/02 06:31:06;;;;;;;1.10;1.00;;;;;;;15.90;65.39;98507.22;6231756;28;20262;-46
2022/07/02 06:34:08;;;;;;;2.00;1.13;;;;;;;16.10;64.50;98503.63;6231707;28;20247;-45
2022/07/02 06:37:10;;;;;;;1.10;1.00;;;;;;;16.29;63.13;98510.78;6231123;28;20235;-46
2022/07/02 06:40:13;;;;;;;1.03;0.90;;;;;;;16.50;62.55;98511.50;6231833;28;20297;-45
2022/07/02 06:43:15;;;;;;;1.20;1.10;;;;;;;16.65;62.12;98507.50;6230489;28;20251;-45
2022/07/02 06:46:17;;;;;;;1.27;1.10;;;;;;;16.84;61.33;98511.97;6231812;28;20331;-46
2022/07/02 06:49:20;;;;;;;1.10;1.10;;;;;;;17.03;59.96;98514.59;6230850;28;20262;-45
2022/07/02 06:52:22;;;;;;;1.77;1.00;;;;;;;17.25;59.48;98514.28;6231401;28;20223;-45
2022/07/02 06:55:25;;;;;;;2.63;1.03;;;;;;;17.24;59.34;98495.75;6230890;28;20236;-44
2022/07/02 06:58:27;;;;;;;2.03;1.20;;;;;;;17.31;60.60;98505.69;6230868;28;20247;-45
2022/07/02 07:01:29;;;;;;;1.63;1.30;;;;;;;17.56;59.38;98504.19;6230855;28;20719;-45
2022/07/02 07:05:04;;;;;;;1.33;1.10;;;;;;;17.89;58.51;98494.78;6231145;28;20232;-45
2022/07/02 07:08:06;;;;;;;3.63;1.10;;;;;;;18.13;59.05;98502.25;6211911;28;20235;-44
2022/07/02 07:11:08;;;;;;;0.93;0.90;;;;;;;18.19;57.63;98498.94;6230857;28;20267;-45
2022/07/02 07:14:11;;;;;;;1.03;0.80;;;;;;;18.46;57.34;98503.41;6213437;28;20264;-45
2022/07/02 07:17:13;;;;;;;3.50;1.20;;;;;;;18.76;56.87;98505.72;6229701;28;20224;-45
2022/07/02 07:20:19;;;;;;;2.77;0.90;;;;;;;19.11;56.21;98496.78;6230585;28;20223;-45
2022/07/02 07:23:21;;;;;;;1.80;0.80;;;;;;;19.44;55.25;98500.50;6229835;28;20294;-45
2022/07/02 07:26:23;;;;;;;1.03;1.00;;;;;;;19.70;54.86;98505.00;6230210;28;20231;-47
2022/07/02 07:29:26;;;;;;;1.17;1.10;;;;;;;19.83;54.63;98506.25;6230613;28;20317;-47
2022/07/02 07:32:28;;;;;;;1.50;1.20;;;;;;;19.31;54.49;98515.31;6215148;28;20220;-45
2022/07/02 07:35:30;;;;;;;1.13;1.10;;;;;;;19.17;54.68;98509.53;6229524;28;20236;-46
2022/07/02 07:38:34;;;;;;;1.67;1.00;;;;;;;19.48;54.35;98506.41;6229283;28;20750;-46
2022/07/02 07:41:36;;;;;;;1.27;1.00;;;;;;;19.72;54.62;98503.03;6213161;28;20609;-45
2022/07/02 07:44:38;;;;;;;1.00;1.00;;;;;;;19.96;54.15;98504.97;6230103;28;21039;-46
2022/07/02 07:47:41;;;;;;;1.83;1.33;;;;;;;20.39;52.55;98506.59;6211726;28;20762;-46
2022/07/02 07:50:43;;;;;;;1.00;0.90;;;;;;;20.25;53.52;98508.06;6229150;28;20235;-45
2022/07/02 07:53:45;;;;;;;1.23;1.10;;;;;;;20.69;52.32;98508.66;6229894;28;20591;-46
2022/07/02 07:56:48;;;;;;;1.13;1.03;;;;;;;21.08;51.05;98518.72;6229659;28;20239;-47
2022/07/02 07:59:50;;;;;;;1.43;1.33;;;;;;;21.19;50.41;98519.25;6224000;28;20244;-46
2022/07/02 08:02:52;;;;;;;1.10;1.00;;;;;;;20.82;51.46;98524.28;6228198;28;20323;-45
2022/07/02 08:05:56;;;;;;;1.03;0.93;;;;;;;20.28;51.61;98516.59;6220089;28;20229;-45
2022/07/02 08:08:59;;;;;;;1.30;1.20;;;;;;;20.52;51.91;98507.81;6209062;28;20285;-46
2022/07/02 08:12:02;;;;;;;1.97;1.10;;;;;;;21.23;50.65;98506.34;6209140;28;20329;-47
2022/07/02 08:15:05;;;;;;;2.53;0.90;;;;;;;21.40;49.67;98497.22;6218020;28;20223;-45
2022/07/02 08:18:08;;;;;;;0.80;0.80;;;;;;;22.00;48.82;98505.63;6214952;28;20211;-45
2022/07/02 08:21:10;;;;;;;1.20;1.10;;;;;;;22.36;47.70;98495.16;6216680;28;20224;-49
2022/07/02 08:24:12;;;;;;;1.30;1.20;;;;;;;22.24;46.10;98488.53;6219333;28;20297;-46
2022/07/02 08:27:15;;;;;;;1.17;0.97;;;;;;;22.03;47.90;98489.13;6202505;28;20586;-46
2022/07/02 08:30:17;;;;;;;2.00;1.00;;;;;;;22.39;47.71;98497.50;6221746;28;20632;-46
2022/07/02 08:33:19;;;;;;;3.03;1.30;;;;;;;22.39;47.49;98489.44;6214756;28;20287;-45
2022/07/02 08:36:22;;;;;;;3.30;1.20;;;;;;;22.79;47.32;98487.47;6213205;28;20294;-45
2022/07/02 08:39:24;;;;;;;0.97;0.83;;;;;;;23.08;46.26;98494.81;6227572;28;20247;-45
2022/07/02 08:42:31;;;;;;;1.90;1.07;;;;;;;22.76;46.41;98485.97;6223985;28;20708;-46
2022/07/02 08:45:34;;;;;;;1.60;1.10;;;;;;;22.96;45.96;98486.31;6228397;28;20236;-46
2022/07/02 08:48:39;;;;;;;1.17;1.07;;;;;;;22.95;45.85;98489.22;6227019;28;20913;-46
2022/07/02 08:51:43;;;;;;;0.90;0.90;;;;;;;23.05;45.87;98479.88;6228464;28;20282;-47
2022/07/02 08:54:47;;;;;;;0.93;0.93;;;;;;;23.68;45.00;98481.22;6228234;28;20256;-46
2022/07/02 08:57:51;;;;;;;2.30;0.87;;;;;;;23.76;45.35;98485.69;6227796;28;20645;-46
2022/07/02 09:00:54;;;;;;;0.90;0.90;;;;;;;23.35;44.95;98491.53;6210781;28;20235;-46
2022/07/02 09:03:56;;;;;;;0.97;0.97;;;;;;;23.46;45.38;98480.25;6232177;28;20290;-46
2022/07/02 09:07:02;;;;;;;1.00;0.90;;;;;;;23.79;44.98;98480.75;6228355;28;20231;-45
2022/07/02 09:10:05;;;;;;;0.97;0.83;;;;;;;24.83;43.57;98482.16;6228243;28;20228;-47
2022/07/02 09:13:11;;;;;;;2.40;1.00;;;;;;;24.59;43.11;98493.34;6228980;28;20285;-46
2022/07/02 09:16:13;;;;;;;1.10;1.00;;;;;;;23.86;44.43;98503.25;6228903;28;20235;-46
2022/07/02 09:19:18;;;;;;;0.70;0.70;;;;;;;23.81;45.24;98489.50;6227044;28;20334;-46
2022/07/02 09:22:33;;;;;;;1.10;1.00;;;;;;;23.97;45.46;98484.91;6227984;28;20262;-45
2022/07/02 09:25:36;;;;;;;0.80;0.80;;;;;;;23.20;45.54;98490.66;6227393;28;20374;-45
2022/07/02 09:28:38;;;;;;;1.00;0.90;;;;;;;23.84;45.58;98475.66;6227372;28;20338;-46
2022/07/02 09:31:49;;;;;;;0.90;0.73;;;;;;;24.17;43.40;98470.66;6228007;28;20238;-48
2022/07/02 09:34:53;;;;;;;0.70;0.70;;;;;;;23.62;45.42;98475.75;6228867;28;20232;-49
2022/07/02 09:37:55;;;;;;;1.80;1.10;;;;;;;23.41;45.62;98484.56;6226907;28;20693;-49
2022/07/02 09:40:59;;;;;;;1.00;0.87;;;;;;;22.96;45.81;98490.91;6227591;28;20224;-47
2022/07/02 09:44:03;;;;;;;2.27;0.90;;;;;;;23.78;44.09;98475.56;6228033;28;20262;-46
2022/07/02 09:47:05;;;;;;;0.60;0.60;;;;;;;24.19;43.42;98470.47;6210011;28;20243;-47
2022/07/02 09:50:12;;;;;;;0.70;0.70;;;;;;;23.80;44.38;98471.66;6227059;28;20243;-46
2022/07/02 09:53:15;;;;;;;0.80;0.80;;;;;;;24.54;42.51;98469.66;6226894;28;20235;-46
2022/07/02 09:56:19;;;;;;;0.60;0.60;;;;;;;25.21;40.61;98462.97;6227598;28;20243;-48
2022/07/02 09:59:23;;;;;;;0.45;0.40;;;;;;;25.39;40.52;98452.50;6227031;28;20223;-49
2022/07/02 10:02:26;;;;;;;0.75;0.63;;;;;;;25.79;39.01;98442.75;6228444;28;20239;-47
2022/07/02 10:05:33;;;;;;;0.75;0.75;;;;;;;25.37;40.34;98454.53;6210329;28;20311;-47
2022/07/02 10:08:37;;;;;;;0.88;0.60;;;;;;;25.23;40.29;98450.94;6226474;28;20606;-46
2022/07/02 10:11:40;;;;;;;2.05;0.80;;;;;;;25.02;40.05;98442.03;6227767;28;20231;-48
2022/07/02 10:14:44;;;;;;;3.95;0.70;;;;;;;25.29;40.30;98441.19;6231032;28;20236;-46
2022/07/02 10:17:46;;;;;;;0.77;0.60;;;;;;;26.13;39.68;98458.09;6231398;28;20235;-46
2022/07/02 10:20:49;;;;;;;1.15;0.60;;;;;;;26.26;39.72;98451.84;6231981;28;20305;-48
2022/07/02 10:23:52;;;;;;;0.60;0.55;;;;;;;26.41;38.68;98442.56;6231753;28;20243;-46
2022/07/02 10:26:58;;;;;;;0.47;0.47;;;;;;;26.40;38.71;98445.47;6230606;28;20220;-47
2022/07/02 10:30:01;;;;;;;0.60;0.50;;;;;;;27.04;37.60;98451.22;6231683;28;20216;-48
2022/07/02 10:33:41;;;;;;;1.23;0.60;;;;;;;27.54;36.10;98435.28;6231369;28;20216;-46
2022/07/02 10:36:44;;;;;;;0.60;0.60;;;;;;;27.41;35.05;98435.31;6230874;28;20597;-49
2022/07/02 10:39:46;;;;;;;1.00;0.52;;;;;;;28.16;35.33;98441.94;6231362;28;20242;-49
2022/07/02 10:42:50;;;;;;;0.52;0.52;;;;;;;28.19;33.80;98430.69;6230907;28;20311;-50
2022/07/02 10:46:06;;;;;;;0.50;0.50;;;;;;;27.72;34.54;98432.75;6230657;28;20323;-49
2022/07/02 10:49:09;;;;;;;0.50;0.50;;;;;;;27.49;34.80;98427.78;6231343;28;20232;-50
2022/07/02 10:52:11;;;;;;;1.65;0.50;;;;;;;27.27;34.88;98429.06;6232047;28;20664;-48
2022/07/02 10:55:29;;;;;;;1.20;0.60;;;;;;;26.70;33.94;98419.69;6213552;28;20338;-48
2022/07/02 10:58:37;;;;;;;0.52;0.47;;;;;;;26.34;35.15;98430.91;6230217;28;20382;-50
2022/07/02 11:02:03;;;;;;;2.15;0.70;;;;;;;26.93;34.94;98423.91;6230700;28;20271;-47
2022/07/02 11:05:13;;;;;;;1.10;0.40;;;;;;;27.74;34.52;98414.38;6229702;28;20629;-48
2022/07/02 11:08:46;;;;;;;2.03;0.73;;;;;;;28.70;32.97;98416.13;6231025;28;20239;-51
2022/07/02 11:11:58;;;;;;;1.52;0.68;;;;;;;28.11;32.69;98420.03;6230828;28;20255;-51
2022/07/02 11:15:01;;;;;;;1.60;0.60;;;;;;;28.42;32.27;98411.97;6230708;28;20234;-50
2022/07/02 11:18:20;;;;;;;0.80;0.57;;;;;;;28.29;32.29;98414.75;6229664;28;20228;-49
2022/07/02 11:21:23;;;;;;;1.15;0.50;;;;;;;29.05;31.02;98405.66;6230277;28;20300;-48
2022/07/02 11:24:28;;;;;;;1.00;0.63;;;;;;;29.18;30.61;98414.47;6230197;28;20232;-49
2022/07/02 11:27:30;;;;;;;0.65;0.50;;;;;;;28.92;31.92;98410.13;6229988;28;20232;-48
2022/07/02 11:30:33;;;;;;;1.30;0.60;;;;;;;28.21;31.88;98401.44;6229608;28;20362;-50
2022/07/02 11:33:35;;;;;;;0.60;0.60;;;;;;;28.15;32.14;98408.53;6230324;28;20224;-51
2022/07/02 11:36:38;;;;;;;2.42;0.60;;;;;;;28.63;32.00;98400.72;6229696;28;20246;-50
2022/07/02 11:39:40;;;;;;;0.73;0.60;;;;;;;28.93;32.13;98408.25;6229555;28;20344;-50
2022/07/02 11:42:43;;;;;;;0.95;0.52;;;;;;;29.17;30.09;98393.78;6229954;28;20283;-51
2022/07/02 11:45:46;;;;;;;3.05;0.60;;;;;;;29.36;31.19;98398.22;6229551;28;20340;-50
2022/07/02 11:48:50;;;;;;;2.70;0.60;;;;;;;29.40;30.71;98403.22;6229596;28;20235;-49
2022/07/02 11:51:54;;;;;;;2.00;0.60;;;;;;;29.02;30.77;98404.19;6204984;28;20268;-52
2022/07/02 11:54:56;;;;;;;1.00;0.50;;;;;;;29.35;30.86;98401.13;6216566;28;20239;-49
2022/07/02 11:57:59;;;;;;;0.52;0.50;;;;;;;29.75;28.72;98393.38;6228431;28;20235;-49
2022/07/02 12:01:01;;;;;;;0.50;0.50;;;;;;;29.92;28.91;98399.88;6229268;28;20228;-50
2022/07/02 12:04:05;;;;;;;0.88;0.70;;;;;;;30.32;29.92;98388.47;6229534;28;20240;-48
2022/07/02 12:07:08;;;;;;;0.93;0.70;;;;;;;30.97;28.60;98391.19;6205270;28;20236;-50
2022/07/02 12:10:12;;;;;;;0.80;0.75;;;;;;;31.57;28.56;98382.75;6226588;28;20294;-47
2022/07/02 12:13:15;;;;;;;1.40;0.77;;;;;;;31.68;28.28;98381.94;6229185;28;20239;-51
2022/07/02 12:16:25;;;;;;;0.60;0.60;;;;;;;31.30;27.69;98382.44;6228902;28;20240;-52
2022/07/02 12:19:33;;;;;;;0.85;0.45;;;;;;;31.69;27.61;98386.31;6211064;28;20243;-50
2022/07/02 12:22:36;;;;;;;0.70;0.70;;;;;;;31.51;26.81;98384.56;6229222;28;20747;-53
2022/07/02 12:25:45;;;;;;;0.75;0.70;;;;;;;31.76;26.16;98378.81;6228905;28;20246;-48
2022/07/02 12:32:26;;;;;;;0.70;0.70;;;;;;;31.04;28.11;98375.56;6229117;28;20639;-48
2022/07/02 12:35:29;;;;;;;0.93;0.85;;;;;;;31.71;27.22;98376.81;6227527;28;20222;-53
2022/07/02 12:38:44;;;;;;;0.80;0.80;;;;;;;32.23;26.92;98374.88;6228120;28;20263;-49
2022/07/02 12:41:47;;;;;;;0.70;0.70;;;;;;;32.74;26.59;98362.13;6230181;28;20236;-48
2022/07/02 12:44:51;;;;;;;0.57;0.57;;;;;;;33.04;26.60;98350.84;6228626;28;20238;-51
2022/07/02 12:48:03;;;;;;;1.08;0.75;;;;;;;32.32;27.75;98353.44;6227823;28;20366;-51
2022/07/02 12:51:09;;;;;;;0.70;0.70;;;;;;;31.28;27.40;98358.13;6228332;28;20232;-48
2022/07/02 12:54:11;;;;;;;1.20;0.68;;;;;;;31.48;26.83;98353.13;6228727;28;20216;-53
2022/07/02 12:57:15;;;;;;;0.63;0.63;;;;;;;32.01;27.32;98351.19;6227915;28;20212;-51
2022/07/02 13:00:17;;;;;;;0.73;0.73;;;;;;;32.49;26.65;98342.53;6227640;28;20220;-51
2022/07/02 13:03:22;;;;;;;0.98;0.85;;;;;;;33.09;26.19;98342.69;6228004;28;20258;-51
2022/07/02 13:06:24;;;;;;;0.70;0.70;;;;;;;33.41;25.39;98333.84;6211322;28;20235;-53
2022/07/02 13:09:27;;;;;;;1.63;0.60;;;;;;;33.40;25.21;98343.13;6227925;28;20278;-49
2022/07/02 13:12:29;;;;;;;0.93;0.70;;;;;;;33.16;26.47;98334.28;6228579;28;20232;-53
2022/07/02 13:15:32;;;;;;;1.70;0.50;;;;;;;33.57;25.51;98336.50;6227814;28;20382;-50
2022/07/02 13:18:34;;;;;;;1.70;0.82;;;;;;;33.07;25.73;98324.84;6228636;28;20231;-53
2022/07/02 13:21:36;;;;;;;0.60;0.60;;;;;;;33.09;26.31;98320.78;6228127;28;20330;-51
2022/07/02 13:24:39;;;;;;;0.57;0.57;;;;;;;33.43;24.95;98323.47;6228460;28;20273;-53
2022/07/02 13:27:42;;;;;;;0.82;0.80;;;;;;;33.51;24.67;98318.38;6226781;28;20659;-53
2022/07/02 13:30:44;;;;;;;0.88;0.65;;;;;;;33.54;23.97;98317.84;6227643;28;20315;-51
2022/07/02 13:33:47;;;;;;;1.02;0.70;;;;;;;33.61;24.64;98320.41;6211316;28;20266;-49
2022/07/02 13:36:49;;;;;;;0.63;0.60;;;;;;;34.07;25.17;98310.81;6227322;28;20227;-53
2022/07/02 13:39:51;;;;;;;0.80;0.75;;;;;;;34.44;22.66;98305.41;6227910;28;20237;-53
2022/07/02 13:42:54;;;;;;;3.22;0.90;;;;;;;34.29;23.23;98311.59;6228456;28;20235;-53
2022/07/02 13:45:56;;;;;;;0.93;0.80;;;;;;;34.51;22.85;98305.22;6228085;28;20235;-52
2022/07/02 13:48:58;;;;;;;1.08;0.77;;;;;;;34.12;23.45;98312.78;6229843;28;20247;-51
2022/07/02 13:52:01;;;;;;;0.70;0.70;;;;;;;33.73;23.28;98304.69;6232299;28;20270;-51
2022/07/02 13:55:04;;;;;;;0.95;0.65;;;;;;;33.37;24.13;98316.25;6232426;28;20243;-54
2022/07/02 13:58:07;;;;;;;0.75;0.75;;;;;;;34.19;22.77;98308.72;6232419;28;20321;-51
2022/07/02 14:01:09;;;;;;;1.30;0.75;;;;;;;35.19;21.83;98301.56;6232490;28;20711;-53
2022/07/02 14:04:11;;;;;;;1.35;0.60;;;;;;;35.69;21.81;98294.66;6213696;28;20246;-51
2022/07/02 14:07:14;;;;;;;1.67;0.60;;;;;;;35.58;20.88;98292.97;6231874;28;20286;-54
2022/07/02 14:10:16;;;;;;;1.25;0.80;;;;;;;36.41;19.85;98297.31;6231676;28;20378;-50
2022/07/02 14:13:18;;;;;;;1.27;0.65;;;;;;;37.95;18.56;98289.19;6232778;28;20242;-51
2022/07/02 14:16:21;;;;;;;1.48;0.80;;;;;;;38.68;17.75;98292.00;6231755;28;20318;-52
2022/07/02 14:19:23;;;;;;;0.57;0.57;;;;;;;39.46;17.04;98288.97;6230802;28;20646;-53
2022/07/02 14:22:29;;;;;;;1.70;0.68;;;;;;;39.34;16.77;98283.00;6232093;28;20326;-49
2022/07/02 14:25:31;;;;;;;0.55;0.55;;;;;;;40.52;15.79;98281.09;6230617;28;20239;-50
2022/07/02 14:28:35;;;;;;;1.45;0.68;;;;;;;42.23;15.35;98275.13;6231389;28;20351;-53
2022/07/02 14:31:37;;;;;;;0.47;0.47;;;;;;;43.17;14.79;98268.56;6231162;28;20243;-51
2022/07/02 14:34:39;;;;;;;0.90;0.65;;;;;;;43.90;13.17;98266.13;6231428;28;20231;-49
2022/07/02 14:37:43;;;;;;;0.57;0.57;;;;;;;43.72;13.25;98263.34;6230400;28;20722;-52